Timeline UpdatesTrip UpdatesNews PostsPvt Posts♥♥Travel TipsAdmin PostsConv PostsFollowed PostsChat RequestsBlog PostsPNR Posts

Disclaimer
Search
 
 
Fri Oct 31, 2014 17:39:11 ISTHomeTrainsΣChainsAtlasPNRForumGalleryNewsFAQTripsMembersLoginFeedback
No Recent News for this Train
Other Trains in the News **new
Latest...
..
Sun Sep 15, 2013 (05:04PM)
⇐ Return Journey: Train# 11039

11040/Maharashtra Express

Time-Table HAS CHANGED.
Sep 02 2014 (12:27AM)
Change Departure Station:
Change Arrival Station:
Post a Train Travel TipPost a Train Travel Tip **new
Post a Comment/Question/Picture/VideoPost a Comment/Question/Picture/Video
Pantry/Catering
✕ NO Pantry Car
✓ Catering Avbl
Loco/Rake Reversals
PUNE/Pune Junction (6); DD/Daund Junction (7);
RSA - Rake Sharing
11023/11024 Sahyadri Express
Rake/Coach Composition
Coach Composition From G-BSL-->> Loco,S9(G-DD),SLR, GEN, GEN, A1, B1, S8, S7, S6, S5, S4, S3, S2, S1, GEN, SLR; Coach Composition From BSL-DD-->>Loco,S9,SLR, GEN, GEN, A1, B1, S8, S7, S6, S5, S4, S3, S2, S1, GEN, SLR ,S10 ,S11; Coach Composition From DD-PUNE-->>Loco-S11-S10, SLR ,GEN, S1 To S8 ,B1 ,A1...
Read more...
,GEN ,GEN ,SLR; Coach Composition FromPUNE-KOP-->>Loco,SLR, GEN, GEN, A1, B1, S8, S7, S6, S5, S4, S3, S2, S1, GEN, SLR ,S10 ,S11
Loco
G-BSL: BSL WAP-4 BSL-KOP: PUNE/GY/GTL WDM-3D
News    PNR    Forum    Time-Table    Availability    Fare Chart    Map    Arr/Dep History    Trips    Gallery    ΣChains    X/O    Timeline    
Travel Time: 1h 35m    2 halts    Distance: 76 km    Avg Speed: 48 km/hr
Type: Mail/Express
Zone: CR/Central
Departs @ 03:00 (Avg 13m late)
Platform# 2
SMTWTFS
Daund Junction/DD 
Arrives @ 04:35 (Avg 8m late)
Platform# 3
SMTWTFS
Pune Junction/PUNE 

2 halts. 13 intermediate Stations between Daund Junction and Pune Junction

Show ALL intermediate Stations  Show Old Time-Table

#TrkCodeStation NameX/OArrivesAvgDepartsAvgHaltPFDay#KmSpeedElevZoneAddress
1/==/GGondia Junction (7)  -08:20+251-944.588316mSECRGondia 441601, Maharashtra
2/==/TROTirora (3)  08:40+1008:42+92m--1-915.276282mSECRDist Gondia, Maharashtra
3/==/TMRTumsar Road (5)X  08:58+809:00+82m31-894.883267mSECRDistt. Bhandara, Maharashtra
4/==/BRDBhandara Road (3)  09:13+1009:15+102m--1-876.993266mSECRState Highway 252 Bhandara District, Maharashtra
5/==/KPKamptee (3)X  09:46+1309:48+122m--1-829.035290mSECRKamptee, Maharashtra
6/==/ITRItwari (3)XO  10:06+1210:08+132m--1-818.57306mSECRNagpur, Maharashtra
7|--|NGPNagpur Junction (8)XO  10:40+110:55+915m51-814.723314mCRNagpur 440001, Maharashtra
8/==/AJNIAjni (3)X  11:03+1511:04+171m21-811.776310mCRNagpur 440003, Maharashtra
9/==/SEGMSewagram Junction (5)X  12:02+1812:03+201m--1-738.523279mCRWardha, Maharashtra
10/==/WRWardha Junction (4)X  12:10+2112:13+203m--1-735.881289mCRWardha 442001, Maharashtra
11/==/PLOPulgaon Junction (3)XO  12:35+2212:36+231m21-706.367273mCRPulgaon, Maharashtra
12/==/DMNDhamangaon (2)  12:54+2012:55+211m--1-686.363300mCRDhamangaon, Maharashtra
13/==/CNDChandur (2)XO  13:11+1913:12+191m--1-669.630331mCRAmravati Distt, Maharashtra
14/==/BDBadnera Junction (4)X  14:10+114:15+35m11-640.990335mCRBadnera (Amravati) 444701, Maharashtra
15/==/MZRMurtizapur (3)  14:43+1314:45+132m11-599.189303mCRMurtajapur, Maharashtra
16/==/AKAkola Junction (7)X  15:10+1815:15+185m11-561.977284mCRAkola-444001, Maharashtra
17/==/SEGShegaon (2)  15:44+2415:45+261m11-524.783281mCRShegaon 444203, Maharashtra
18/==/JMJalamb Junction (3)X  15:54+2715:55+281m--1-512.382259mCRJalamb, Maharashtra
19/==/NNNandura (2)X  16:04+2916:05+301m--1-500.170267mCRNandura, Maharashtra
20/==/MKUMalkapur (2)  16:29+2616:30+271m--1-472.262252mCRMalkapur, Maharashtra
21/==/BDWDBodwad (2)  16:49+2716:50+281m--1-452.675294mCRBodwad, Maharashtra
22/==/VNAVarangaon (3)  17:04+3017:05+311m--1-435.030220mCRVarangaon, Maharashtra
23/==/BSLBhusaval Junction (8)X17:30+2217:50+2220m41-422.360208mCRBhusaval 425201, Maharashtra
24/==/JLJalgaon Junction (4)XO  18:14+2818:15+301m31-398.299213mCRJalgaon 425001, Maharashtra
25/==/PCPachora Junction (4)X  18:44+4318:45+451m11-350.579264mCRPachora 424201, Maharashtra
26/==/CSNChalisgaon Junction (3)X  19:19+4419:20+451m11-305.687352mCRChalisgaon 424101, Maharashtra
27/==/NGNNandgaon (3)  19:49+4819:50+491m11-263.551476mCRNandgaon, Maharashtra
28/==/MMRManmad Junction (6)X  20:20+4020:25+445m41-238.127580mCRManmad 423104, Maharashtra
29/--/YLYeola (2)X  21:29+3221:30+431m11-209.546553mCRYeola, Maharashtra
30/--/KPGKopargaon (2)  21:48+3721:50+1:052m21-195.933508mCRKopargaon 423601, Maharashtra
31/--/PBPuntamba Junction (2)XO  22:34+5822:35+1:011m21-171.636501mCRPuntamba, Maharashtra
32/--/BAPBelapur (2)  23:09+4523:10+471m21-151.246541mCRShrirampur, Maharashtra
33/--/ANGAhmadnagar (2)X  00:37+2900:42+285m12-84.241650mCRAhmednagar 414001, Maharashtra
34|-=%DDDaund Junction (7)»XO↵¶02:45-203:00+1315m220.045521mCRNew Daund Dist. Pune 413801, Maharashtra
35%==%KDGKedgaon (2)  03:29+1603:30+161m1221.580544mCRDist. Pune 412203, Maharashtra
36%==%URIUruli (2)X  03:49+1803:50+181m1246.838553mCRDist. Pune 412202, Maharashtra
37/==/PUNEPune Junction (6)•O04:40 04:35+804:50+1710 15m3275.623556mCRPune 411001, Maharashtra
38/=-|GPRGhorpuri (2)  04:56+2804:57+321m--277.964558mCRPune, Maharashtra
39|--|JJRJejuri (1)X  05:49+4305:50+441m12133.742697mCRDist. Pune 412303, Maharashtra
40|--|NIRANira (1)O  06:28+4106:30+422m12160.351553mCRDist. Pune 412102, Maharashtra
41|--|LNNLonandX  06:39+4306:40+431m12168.048594mCRJn Point Daund /Miraj /Pune, Maharashtra
42|--|WTRWathar  07:14+4307:15+441m12195.379799mCRSatara, Maharashtra
43|--|JSVJarandeshwar  07:29+4807:30+481m12213.615678mCRSH 61, Maharashtra
44|--|STRSatara (3)O  08:00+2808:03+283m12221.364637mCRSatara, Maharashtra
45|--|KRGKoregaonO  08:13+3208:14+341m12232.052658mCRKoregaon, Maharashtra
46|--|RMPRahimatpurXO  08:26+3508:27+361m12242.355626mCRSatara, Maharashtra
47|--|TAZTargaonO  08:39+3608:40+371m12253.464617mCRSatara, Maharashtra
48|--|MSRMasurO  08:52+3808:53+391m12266.238610mCRSatara, Maharashtra
49|--|KRDKarad (3)O  09:15+3109:18+303m12279.980597mCRDist- Satara., Maharashtra
50|--|BVNRBhavani NagarO  09:34+3409:35+341m12301.262578mCRTasgaon Rd, Maharashtra
51|--|TKRTakariO  09:41+3709:42+381m22307.331558mCRSangli, Maharashtra
52|--|KOVKirloskarvadiX  09:57+3309:58+351m12315.052570mCRSangli, Maharashtra
53|--|BVQBhilavdi  10:14+3210:15+331m12328.831570mCRSangli, Maharashtra
54|--|SLISangli (3)  10:52+1510:55+153m22347.922559mCRSangli, Maharashtra
55|--|MRJMiraj Junction (6)O  11:15+711:20+95m22355.259554mCRMiraj 416410, Maharashtra
56|--|JSPJayasingpurX  11:32+1311:33+161m22367.054550mCRJaysingpur, Maharashtra
57|--|HTKHatkanagale (2)XO  11:49+1511:50+171m12381.650591mCRDist. Kolhapur 416115, Maharashtra
58|--|RKDRukadi (1)O  11:59+1712:00+171m12389.044544mCRKolhapur, Maharashtra
59|--|VVValivade  12:09-12:10-1m12395.711554mCRValivade, Maharashtra
60|--|KOPKolhapur CSMT (3)  12:45-3-22402.3-563mCRKolhapur 416001, Maharashtra
Scroll to Top
Scroll to Bottom